createdAt,value
2019-05-02T00:01:53.432Z,21.07
2019-05-02T00:04:22.851Z,21.00
2019-05-02T00:07:06.545Z,21.90
2019-05-02T00:09:47.493Z,20.87
2019-05-02T00:12:15.380Z,21.47
2019-05-02T00:14:44.997Z,21.03
2019-05-02T00:17:15.233Z,21.57
2019-05-02T00:19:45.038Z,21.00
2019-05-02T00:22:17.316Z,21.70
2019-05-02T00:24:48.349Z,19.77
2019-05-02T00:27:17.791Z,20.03
2019-05-02T00:29:47.206Z,20.67
2019-05-02T00:32:18.369Z,20.03
2019-05-02T00:34:48.095Z,20.70
2019-05-02T00:37:18.783Z,21.90
2019-05-02T00:39:49.198Z,19.87
2019-05-02T00:42:22.861Z,20.13
2019-05-02T00:44:50.894Z,19.93
2019-05-02T00:47:47.850Z,19.83
2019-05-02T00:50:17.895Z,19.03
2019-05-02T00:52:47.802Z,19.07
2019-05-02T00:55:17.222Z,18.63
2019-05-02T00:57:50.863Z,19.67
2019-05-02T01:00:19.673Z,19.13
2019-05-02T01:02:56.727Z,19.40
2019-05-02T01:05:26.040Z,19.67
2019-05-02T01:08:00.753Z,19.17
2019-05-02T01:10:27.080Z,19.80
2019-05-02T01:12:56.518Z,18.93
2019-05-02T01:15:25.799Z,19.67
2019-05-02T01:17:55.192Z,18.57
2019-05-02T01:20:27.680Z,18.13
2019-05-02T01:22:55.574Z,18.73
2019-05-02T01:25:24.900Z,19.00
2019-05-02T01:28:17.583Z,19.67
2019-05-02T01:31:05.387Z,18.50
2019-05-02T01:33:43.567Z,18.07
2019-05-02T01:36:26.043Z,19.63
2019-05-02T01:38:55.374Z,18.53
2019-05-02T01:41:29.192Z,18.57
2019-05-02T01:44:00.155Z,18.80
2019-05-02T01:46:27.458Z,18.70
2019-05-02T01:48:56.883Z,19.20
2019-05-02T01:51:26.180Z,19.63
2019-05-02T01:53:55.596Z,19.63
2019-05-02T01:56:28.644Z,19.50
2019-05-02T01:58:57.701Z,19.20
2019-05-02T02:01:27.062Z,18.47
2019-05-02T02:03:57.305Z,19.00
2019-05-02T02:06:26.728Z,18.57
2019-05-02T02:08:56.038Z,21.03
2019-05-02T02:11:28.245Z,19.33
2019-05-02T02:13:56.598Z,19.67
2019-05-02T02:16:25.956Z,19.57
2019-05-02T02:19:08.985Z,19.37
2019-05-02T02:22:02.949Z,20.60
2019-05-02T02:24:38.460Z,20.80
2019-05-02T02:27:08.262Z,20.67
2019-05-02T02:29:38.955Z,20.77
2019-05-02T02:32:08.718Z,20.07
2019-05-02T02:34:39.237Z,19.60
2019-05-02T02:37:13.213Z,20.73
2019-05-02T02:39:40.034Z,20.40
2019-05-02T02:42:09.517Z,20.63
2019-05-02T02:44:46.523Z,19.73
2019-05-02T02:47:19.002Z,19.60
2019-05-02T02:49:46.841Z,20.57
2019-05-02T02:52:16.528Z,20.37
2019-05-02T02:54:45.823Z,20.53
2019-05-02T02:57:25.816Z,20.77
2019-05-02T02:59:46.225Z,20.20
2019-05-02T03:02:15.772Z,20.90
2019-05-02T03:04:46.413Z,20.60
2019-05-02T03:07:25.349Z,19.70
2019-05-02T03:09:47.951Z,22.37
2019-05-02T03:12:36.152Z,20.57
2019-05-02T03:15:08.663Z,21.23
2019-05-02T03:17:38.127Z,20.17
2019-05-02T03:20:07.431Z,19.90
2019-05-02T03:22:41.943Z,20.07
2019-05-02T03:25:08.223Z,19.90
2019-05-02T03:27:40.286Z,19.40
2019-05-02T03:30:09.604Z,19.53
2019-05-02T03:32:39.161Z,20.80
2019-05-02T03:35:08.624Z,20.20
2019-05-02T03:37:38.154Z,19.87
2019-05-02T03:40:07.643Z,20.17
2019-05-02T03:42:44.424Z,19.70
2019-05-02T03:45:08.384Z,19.77
2019-05-02T03:47:43.717Z,20.93
2019-05-02T03:50:11.036Z,19.73
2019-05-02T03:52:43.505Z,20.90
2019-05-02T03:55:11.696Z,20.13
2019-05-02T03:57:42.451Z,20.50
2019-05-02T04:00:13.766Z,20.40
2019-05-02T04:02:43.662Z,19.50
2019-05-02T04:05:13.209Z,19.87
2019-05-02T04:07:45.346Z,20.10
2019-05-02T04:10:21.473Z,20.20
2019-05-02T04:12:58.071Z,19.63
2019-05-02T04:15:28.775Z,20.60
2019-05-02T04:17:55.622Z,20.87
2019-05-02T04:20:26.170Z,22.83
2019-05-02T04:22:56.596Z,20.87
2019-05-02T04:25:28.053Z,19.70
2019-05-02T04:28:00.007Z,20.43
2019-05-02T04:30:31.874Z,20.10
2019-05-02T04:33:01.410Z,19.23
2019-05-02T04:35:34.822Z,19.53
2019-05-02T04:38:08.007Z,19.70
2019-05-02T04:40:34.978Z,17.80
2019-05-02T04:43:08.183Z,19.73
2019-05-02T04:45:51.983Z,19.17
2019-05-02T04:48:08.449Z,18.53
2019-05-02T04:50:38.234Z,18.33
2019-05-02T04:53:08.652Z,18.00
2019-05-02T04:55:38.306Z,17.83
2019-05-02T04:58:09.143Z,18.00
2019-05-02T05:00:39.336Z,17.43
2019-05-02T05:03:15.685Z,17.67
2019-05-02T05:05:40.626Z,17.73
2019-05-02T05:08:10.064Z,16.73
2019-05-02T05:10:41.355Z,17.90
2019-05-02T05:13:12.073Z,16.43
2019-05-02T05:15:48.721Z,18.13
2019-05-02T05:18:14.643Z,16.97
2019-05-02T05:20:46.056Z,17.13
2019-05-02T05:23:25.482Z,18.03
2019-05-02T05:26:03.477Z,16.90
2019-05-02T05:28:28.823Z,16.37
2019-05-02T05:30:58.952Z,16.27
2019-05-02T05:33:29.262Z,16.30
2019-05-02T05:35:58.819Z,16.90
2019-05-02T05:38:32.240Z,16.63
2019-05-02T05:41:03.000Z,16.80
2019-05-02T05:43:30.241Z,16.20
2019-05-02T05:46:09.094Z,15.60
2019-05-02T05:48:32.133Z,15.33
2019-05-02T05:51:04.148Z,15.63
2019-05-02T05:53:33.653Z,15.93
2019-05-02T05:56:03.395Z,15.43
2019-05-02T05:58:32.957Z,14.83
2019-05-02T06:01:09.353Z,15.63
2019-05-02T06:03:41.511Z,14.77
2019-05-02T06:06:08.221Z,15.57
2019-05-02T06:08:39.201Z,15.27
2019-05-02T06:11:08.586Z,14.33
2019-05-02T06:13:42.885Z,13.70
2019-05-02T06:16:10.574Z,13.40
2019-05-02T06:18:43.582Z,12.60
2019-05-02T06:21:12.786Z,13.40
2019-05-02T06:23:42.190Z,12.43
2019-05-02T06:26:13.660Z,11.85
2019-05-02T06:28:43.272Z,11.95
2019-05-02T06:31:12.938Z,10.85
2019-05-02T06:33:42.276Z,12.60
2019-05-02T06:36:11.883Z,13.30
2019-05-02T06:38:41.215Z,11.73
2019-05-02T06:41:10.646Z,11.75
2019-05-02T06:43:41.212Z,11.05
2019-05-02T06:46:16.352Z,11.78
2019-05-02T06:48:42.253Z,11.80
2019-05-02T06:51:19.634Z,11.53
2019-05-02T06:53:46.964Z,12.60
2019-05-02T06:56:14.090Z,12.63
2019-05-02T06:58:43.646Z,13.22
2019-05-02T07:01:16.139Z,15.95
2019-05-02T07:03:46.224Z,13.08
2019-05-02T07:06:15.268Z,12.13
2019-05-02T07:08:44.634Z,13.00
2019-05-02T07:11:14.158Z,12.18
2019-05-02T07:13:43.846Z,11.40
2019-05-02T07:16:38.594Z,11.73
2019-05-02T07:19:29.179Z,11.05
2019-05-02T07:21:58.556Z,11.65
2019-05-02T07:24:30.597Z,11.22
2019-05-02T07:27:02.226Z,11.10
2019-05-02T07:29:31.226Z,10.40
2019-05-02T07:32:02.861Z,10.90
2019-05-02T07:34:32.350Z,11.48
2019-05-02T07:37:03.248Z,12.65
2019-05-02T07:39:36.135Z,10.70
2019-05-02T07:42:05.917Z,10.90
2019-05-02T07:44:34.862Z,11.90
2019-05-02T07:47:04.770Z,10.85
2019-05-02T07:49:34.363Z,10.95
2019-05-02T07:52:04.037Z,10.65
2019-05-02T07:54:33.313Z,11.43
2019-05-02T07:57:02.898Z,10.03
2019-05-02T07:59:32.171Z,11.20
2019-05-02T08:02:01.732Z,10.78
2019-05-02T08:04:31.110Z,10.35
2019-05-02T08:07:00.686Z,10.20
2019-05-02T08:09:30.031Z,10.28
2019-05-02T08:11:59.549Z,10.53
2019-05-02T08:14:29.305Z,11.18
2019-05-02T08:17:05.658Z,10.35
2019-05-02T08:19:31.907Z,10.43
2019-05-02T08:22:04.686Z,10.72
2019-05-02T08:24:33.104Z,10.15
2019-05-02T08:27:29.298Z,10.05
2019-05-02T08:30:00.021Z,10.45
2019-05-02T08:32:27.979Z,10.18
2019-05-02T08:34:57.417Z,10.68
2019-05-02T08:37:26.776Z,9.98
2019-05-02T08:39:56.290Z,10.58
2019-05-02T08:42:27.776Z,10.03
2019-05-02T08:45:01.013Z,10.38
2019-05-02T08:47:30.562Z,9.65
2019-05-02T08:50:00.101Z,10.20
2019-05-02T08:52:29.447Z,10.50
2019-05-02T08:54:58.745Z,10.72
2019-05-02T08:57:29.969Z,10.03
2019-05-02T09:00:01.384Z,9.13
2019-05-02T09:02:40.847Z,10.20
2019-05-02T09:05:04.564Z,13.53
2019-05-02T09:07:37.145Z,10.68
2019-05-02T09:10:05.846Z,10.45
2019-05-02T09:12:36.916Z,9.75
2019-05-02T09:15:07.561Z,10.32
2019-05-02T09:17:39.003Z,9.35
2019-05-02T09:20:16.601Z,9.58
2019-05-02T09:22:46.528Z,9.05
2019-05-02T09:25:14.674Z,9.50
2019-05-02T09:27:44.053Z,9.60
2019-05-02T09:30:17.181Z,9.50
2019-05-02T09:32:44.990Z,9.23
2019-05-02T09:35:14.328Z,10.10
2019-05-02T09:37:43.763Z,9.38
2019-05-02T09:40:16.668Z,10.53
2019-05-02T09:42:47.649Z,9.75
2019-05-02T09:45:22.767Z,9.20
2019-05-02T09:48:01.343Z,10.23
2019-05-02T09:50:29.404Z,10.78
2019-05-02T09:52:54.309Z,9.28
2019-05-02T09:55:23.721Z,9.05
2019-05-02T09:57:53.078Z,9.13
2019-05-02T10:00:46.375Z,9.55
2019-05-02T10:03:17.119Z,8.83
2019-05-02T10:05:46.611Z,8.85
2019-05-02T10:08:15.910Z,8.58
2019-05-02T10:10:46.163Z,8.10
2019-05-02T10:13:15.691Z,9.10
2019-05-02T10:15:45.108Z,8.73
2019-05-02T10:18:14.902Z,7.92
2019-05-02T10:20:45.649Z,8.15
2019-05-02T10:23:19.586Z,7.90
2019-05-02T10:25:46.942Z,7.47
2019-05-02T10:28:16.671Z,7.20
2019-05-02T10:30:47.272Z,8.30
2019-05-02T10:33:17.608Z,6.85
2019-05-02T10:35:48.427Z,7.08
2019-05-02T10:38:19.468Z,6.53
2019-05-02T10:40:54.703Z,6.85
2019-05-02T10:43:22.111Z,7.58
2019-05-02T10:45:56.853Z,7.58
2019-05-02T10:48:28.632Z,7.12
2019-05-02T10:51:25.333Z,7.35
2019-05-02T10:53:52.785Z,7.40
2019-05-02T10:56:24.321Z,6.67
2019-05-02T10:58:53.863Z,7.25
2019-05-02T11:01:24.770Z,6.85
2019-05-02T11:03:56.194Z,6.80
2019-05-02T11:06:25.536Z,6.05
2019-05-02T11:08:55.284Z,5.53
2019-05-02T11:11:24.898Z,5.30
2019-05-02T11:14:19.601Z,6.17
2019-05-02T11:17:20.411Z,5.40
2019-05-02T11:19:54.658Z,4.95
2019-05-02T11:22:24.198Z,4.55
2019-05-02T11:24:54.152Z,4.97
2019-05-02T11:27:23.417Z,6.40
2019-05-02T11:29:52.863Z,6.20
2019-05-02T11:32:22.290Z,5.90
2019-05-02T11:34:52.391Z,6.17
2019-05-02T11:37:22.652Z,5.80
2019-05-02T11:39:58.895Z,6.92
2019-05-02T11:42:27.194Z,6.53
2019-05-02T11:44:56.410Z,6.40
2019-05-02T11:47:26.712Z,5.83
2019-05-02T11:49:56.218Z,5.75
2019-05-02T11:52:27.574Z,5.33
2019-05-02T11:54:56.610Z,5.97
2019-05-02T11:57:28.692Z,5.55
2019-05-02T11:59:59.452Z,5.10
2019-05-02T12:02:58.125Z,5.17
2019-05-02T12:05:35.729Z,4.80
2019-05-02T12:08:08.310Z,5.10
2019-05-02T12:10:38.290Z,5.20
2019-05-02T12:13:12.032Z,5.62
2019-05-02T12:15:44.327Z,5.17
2019-05-02T12:18:14.310Z,5.97
2019-05-02T12:20:43.673Z,5.83
2019-05-02T12:23:13.223Z,5.53
2019-05-02T12:25:44.581Z,6.10
2019-05-02T12:28:19.207Z,5.05
2019-05-02T12:30:48.593Z,5.70
2019-05-02T12:33:19.250Z,5.58
2019-05-02T12:35:48.782Z,5.15
2019-05-02T12:38:18.170Z,6.35
2019-05-02T12:40:47.729Z,5.70
2019-05-02T12:43:17.192Z,6.78
2019-05-02T12:45:46.445Z,6.50
2019-05-02T12:48:16.012Z,5.20
2019-05-02T12:50:45.385Z,4.85
2019-05-02T12:53:14.762Z,6.22
2019-05-02T12:55:45.246Z,5.45
2019-05-02T12:58:14.709Z,5.62
2019-05-02T13:00:44.325Z,5.08
2019-05-02T13:03:36.821Z,5.12
2019-05-02T13:06:06.799Z,5.37
2019-05-02T13:08:48.893Z,5.95
2019-05-02T13:11:46.169Z,5.33
2019-05-02T13:14:19.752Z,5.50
2019-05-02T13:16:54.652Z,5.58
2019-05-02T13:19:26.502Z,5.58
2019-05-02T13:22:24.058Z,5.92
2019-05-02T13:24:56.610Z,7.30
2019-05-02T13:27:25.927Z,6.83
2019-05-02T13:29:55.623Z,6.00
2019-05-02T13:32:33.056Z,6.20
2019-05-02T13:35:27.835Z,5.42
2019-05-02T13:38:02.750Z,6.92
2019-05-02T13:40:39.124Z,6.50
2019-05-02T13:43:08.774Z,5.33
2019-05-02T13:45:56.901Z,6.12
2019-05-02T13:48:26.641Z,7.62
2019-05-02T13:50:55.950Z,6.75
2019-05-02T13:53:26.158Z,7.17
2019-05-02T13:56:14.493Z,7.05
2019-05-02T13:58:43.838Z,6.10
2019-05-02T14:01:13.762Z,6.28
2019-05-02T14:03:43.043Z,5.78
2019-05-02T14:06:12.507Z,8.15
2019-05-02T14:08:48.304Z,5.65
2019-05-02T14:11:35.807Z,5.92
2019-05-02T14:14:05.241Z,6.00
2019-05-02T14:16:34.850Z,5.60
2019-05-02T14:19:04.169Z,4.72
2019-05-02T14:21:34.746Z,5.37
2019-05-02T14:24:06.735Z,4.20
2019-05-02T14:26:36.284Z,4.40
2019-05-02T14:29:07.246Z,3.85
2019-05-02T14:31:36.766Z,4.00
2019-05-02T14:34:24.844Z,4.08
2019-05-02T14:36:58.934Z,4.05
2019-05-02T14:39:25.339Z,4.00
2019-05-02T14:41:54.997Z,4.53
2019-05-02T14:44:30.361Z,4.60
2019-05-02T14:46:55.557Z,4.60
2019-05-02T14:49:27.398Z,5.55
2019-05-02T14:51:57.273Z,4.08
2019-05-02T14:54:27.773Z,3.70
2019-05-02T14:57:17.245Z,4.00
2019-05-02T14:59:43.854Z,4.00
2019-05-02T15:02:28.923Z,4.22
2019-05-02T15:04:58.404Z,3.95
2019-05-02T15:07:31.553Z,3.80
2019-05-02T15:10:05.043Z,4.70
2019-05-02T15:12:32.970Z,4.78
2019-05-02T15:15:02.689Z,5.30
2019-05-02T15:17:33.688Z,4.47
2019-05-02T15:20:03.051Z,3.83
2019-05-02T15:22:37.353Z,5.30
2019-05-02T15:25:07.805Z,4.37
2019-05-02T15:27:41.868Z,4.45
2019-05-02T15:30:07.230Z,4.72
2019-05-02T15:32:59.149Z,4.78
2019-05-02T15:35:44.517Z,5.08
2019-05-02T15:38:20.693Z,4.35
2019-05-02T15:40:51.371Z,4.30
2019-05-02T15:43:18.646Z,4.67
2019-05-02T15:45:48.205Z,4.70
2019-05-02T15:48:22.820Z,4.90
2019-05-02T15:50:53.033Z,4.95
2019-05-02T15:53:49.695Z,5.60
2019-05-02T15:56:19.983Z,4.00
2019-05-02T15:58:47.866Z,5.00
2019-05-02T16:01:52.339Z,4.53
2019-05-02T16:04:25.638Z,8.55
2019-05-02T16:06:54.827Z,4.37
2019-05-02T16:09:28.171Z,4.97
2019-05-02T16:11:57.521Z,5.65
2019-05-02T16:14:34.190Z,6.37
2019-05-02T16:17:03.684Z,9.88
2019-05-02T16:19:35.017Z,5.30
2019-05-02T16:22:22.574Z,5.10
2019-05-02T16:24:53.484Z,6.20
2019-05-02T16:27:49.829Z,4.78
2019-05-02T16:30:22.385Z,6.92
2019-05-02T16:32:57.246Z,6.35
2019-05-02T16:35:27.650Z,4.95
2019-05-02T16:38:01.612Z,4.55
2019-05-02T16:40:32.838Z,5.20
2019-05-02T16:43:02.812Z,4.45
2019-05-02T16:45:32.882Z,5.45
2019-05-02T16:48:03.646Z,5.15
2019-05-02T16:50:36.674Z,5.47
2019-05-02T16:53:04.154Z,5.35
2019-05-02T16:55:34.181Z,5.42
2019-05-02T16:58:07.553Z,5.25
2019-05-02T17:00:41.835Z,5.75
2019-05-02T17:03:26.377Z,7.00
2019-05-02T17:05:56.280Z,5.42
2019-05-02T17:09:02.395Z,5.28
2019-05-02T17:11:37.164Z,4.85
2019-05-02T17:14:12.322Z,5.28
2019-05-02T17:17:07.610Z,4.87
2019-05-02T17:19:37.533Z,5.28
2019-05-02T17:22:11.999Z,5.37
2019-05-02T17:24:41.862Z,5.37
2019-05-02T17:27:20.359Z,5.15
2019-05-02T17:29:43.803Z,4.95
2019-05-02T17:32:13.552Z,5.47
2019-05-02T17:34:43.177Z,8.20
2019-05-02T17:37:15.652Z,6.10
2019-05-02T17:39:46.124Z,5.42
2019-05-02T17:42:16.987Z,5.35
2019-05-02T17:44:51.692Z,5.20
2019-05-02T17:47:20.595Z,5.15
2019-05-02T17:49:50.537Z,6.00
2019-05-02T17:52:32.545Z,7.22
2019-05-02T17:55:03.068Z,5.17
2019-05-02T17:57:33.343Z,5.20
2019-05-02T18:00:07.490Z,5.33
2019-05-02T18:02:37.714Z,5.30
2019-05-02T18:05:07.675Z,5.42
2019-05-02T18:07:37.130Z,5.28
2019-05-02T18:10:14.461Z,5.58
2019-05-02T18:12:38.056Z,5.55
2019-05-02T18:15:08.586Z,7.50
2019-05-02T18:17:37.854Z,6.22
2019-05-02T18:20:08.254Z,6.72
2019-05-02T18:22:39.937Z,6.42
2019-05-02T18:25:08.684Z,5.78
2019-05-02T18:27:38.128Z,6.22
2019-05-02T18:30:12.727Z,6.10
2019-05-02T18:32:43.048Z,6.65
2019-05-02T18:35:13.112Z,7.05
2019-05-02T18:37:46.820Z,7.15
2019-05-02T18:40:20.135Z,6.60
2019-05-02T18:42:49.387Z,6.60
2019-05-02T18:45:26.257Z,6.28
2019-05-02T18:48:01.199Z,6.62
2019-05-02T18:50:36.735Z,6.83
2019-05-02T18:53:08.175Z,7.97
2019-05-02T18:55:38.909Z,7.73
2019-05-02T18:58:09.510Z,7.05
2019-05-02T19:00:41.941Z,6.53
2019-05-02T19:03:13.232Z,7.30
2019-05-02T19:05:46.711Z,8.28
2019-05-02T19:08:28.272Z,7.95
2019-05-02T19:11:04.057Z,7.27
2019-05-02T19:13:18.905Z,7.70
2019-05-02T19:15:49.108Z,8.15
2019-05-02T19:18:19.677Z,7.17
2019-05-02T19:21:03.132Z,7.57
2019-05-02T19:23:33.015Z,7.00
2019-05-02T19:26:14.651Z,7.70
2019-05-02T19:28:59.695Z,7.13
2019-05-02T19:31:52.320Z,7.40
2019-05-02T19:34:22.827Z,7.17
2019-05-02T19:36:53.011Z,6.85
2019-05-02T19:39:24.296Z,7.00
2019-05-02T19:41:57.675Z,6.35
2019-05-02T19:44:29.614Z,6.60
2019-05-02T19:46:59.087Z,6.50
2019-05-02T19:49:32.814Z,5.60
2019-05-02T19:52:03.948Z,6.15
2019-05-02T19:54:39.281Z,6.80
2019-05-02T19:57:08.567Z,6.07
2019-05-02T19:59:38.249Z,5.87
2019-05-02T20:02:08.571Z,6.43
2019-05-02T20:04:42.762Z,5.40
2019-05-02T20:07:09.484Z,6.10
2019-05-02T20:09:43.624Z,5.97
2019-05-02T20:12:15.007Z,7.00
2019-05-02T20:14:47.568Z,6.47
2019-05-02T20:17:20.130Z,6.23
2019-05-02T20:19:52.746Z,7.00
2019-05-02T20:22:23.467Z,6.27
2019-05-02T20:24:58.343Z,5.73
2019-05-02T20:27:28.495Z,6.33
2019-05-02T20:29:58.276Z,6.07
2019-05-02T20:32:28.714Z,6.23
2019-05-02T20:34:58.443Z,8.23
2019-05-02T20:37:27.864Z,6.93
2019-05-02T20:40:02.767Z,6.73
2019-05-02T20:42:42.817Z,6.33
2019-05-02T20:45:12.359Z,6.27
2019-05-02T20:47:42.732Z,7.30
2019-05-02T20:50:15.192Z,6.67
2019-05-02T20:52:44.696Z,6.17
2019-05-02T20:55:14.474Z,6.13
2019-05-02T20:57:45.330Z,6.40
2019-05-02T21:00:23.552Z,6.43
2019-05-02T21:02:53.065Z,8.40
2019-05-02T21:05:27.234Z,12.73
2019-05-02T21:08:11.990Z,6.60
2019-05-02T21:10:45.107Z,6.53
2019-05-02T21:13:15.357Z,6.43
2019-05-02T21:15:46.228Z,6.50
2019-05-02T21:18:19.639Z,5.87
2019-05-02T21:20:48.910Z,6.40
2019-05-02T21:23:18.546Z,6.83
2019-05-02T21:25:48.081Z,9.93
2019-05-02T21:28:17.570Z,7.17
2019-05-02T21:30:47.567Z,6.87
2019-05-02T21:33:35.814Z,9.50
2019-05-02T21:36:05.728Z,7.13
2019-05-02T21:38:36.290Z,6.20
2019-05-02T21:41:09.525Z,7.90
2019-05-02T21:43:42.425Z,6.03
2019-05-02T21:46:11.747Z,6.50
2019-05-02T21:48:42.065Z,6.23
2019-05-02T21:51:33.817Z,5.87
2019-05-02T21:54:19.607Z,6.87
2019-05-02T21:56:52.719Z,6.13
2019-05-02T21:59:22.534Z,6.27
2019-05-02T22:01:53.506Z,6.40
2019-05-02T22:04:22.894Z,6.63
2019-05-02T22:06:52.439Z,6.77
2019-05-02T22:09:23.064Z,6.80
2019-05-02T22:11:52.938Z,6.37
2019-05-02T22:14:22.537Z,6.63
2019-05-02T22:16:52.907Z,6.50
2019-05-02T22:19:22.621Z,6.17
2019-05-02T22:21:52.585Z,6.53
2019-05-02T22:24:22.140Z,6.13
2019-05-02T22:26:52.627Z,6.20
2019-05-02T22:29:22.186Z,6.23
2019-05-02T22:31:54.435Z,6.90
2019-05-02T22:34:23.071Z,6.90
2019-05-02T22:36:54.238Z,6.20
2019-05-02T22:39:42.074Z,6.37
2019-05-02T22:42:12.842Z,6.47
2019-05-02T22:44:42.607Z,6.37
2019-05-02T22:47:14.030Z,6.80
2019-05-02T22:49:43.125Z,6.40
2019-05-02T22:52:14.392Z,6.23
2019-05-02T22:54:44.407Z,6.40
2019-05-02T22:57:14.237Z,5.77
2019-05-02T22:59:43.886Z,6.70
2019-05-02T23:02:14.966Z,6.57
2019-05-02T23:04:44.331Z,6.50
2019-05-02T23:07:13.729Z,6.23
2019-05-02T23:09:43.673Z,6.00
2019-05-02T23:12:13.509Z,6.40
2019-05-02T23:14:43.088Z,6.27
2019-05-02T23:17:13.975Z,7.03
2019-05-02T23:19:43.736Z,8.20
2019-05-02T23:22:15.612Z,8.87
2019-05-02T23:25:05.333Z,9.60
2019-05-02T23:27:42.746Z,7.20
2019-05-02T23:30:14.882Z,7.37
2019-05-02T23:32:44.398Z,8.00
2019-05-02T23:35:14.598Z,7.53
2019-05-02T23:37:45.520Z,8.33
2019-05-02T23:40:15.571Z,8.50
2019-05-02T23:42:46.204Z,8.27
2019-05-02T23:45:15.937Z,8.50
2019-05-02T23:47:45.345Z,7.63
2019-05-02T23:50:14.991Z,7.47
2019-05-02T23:52:44.879Z,16.40
2019-05-02T23:55:14.505Z,9.57
2019-05-02T23:57:43.881Z,7.77
